Time;durP1;ratioP1;P1;durP2;ratioP2;P2;SDS_P1;SDS_P2;PMS_P1;PMS_P2;Temp;Humidity;BMP_temperature;BMP_pressure;BME280_temperature;BME280_humidity;BME280_pressure;Samples;Min_cycle;Max_cycle;Signal;HPM_P1;HPM_P2
2022/01/01 00:46:25;;;;;;;188.70;113.50;;;;;;;6.71;82.44;94794.13;830363;70;32654;-87
2022/01/01 01:01:40;;;;;;;184.15;105.12;;;;;;;6.48;82.62;94770.55;811133;72;31994;-86
2022/01/01 01:16:47;;;;;;;;;;;;;;;;;;;;;
2022/01/01 02:02:11;;;;;;;;;;;;;;;;;;;;;
2022/01/01 02:17:18;;;;;;;;;;;;;;;;;;;;;
2022/01/01 02:32:05;;;;;;;;;;;;;;;;;;;;;
2022/01/01 03:31:40;;;;;;;74.30;43.83;;;;;;;5.78;83.51;94693.88;800024;74;33067;-87
2022/01/01 04:32:02;;;;;;;59.00;38.05;;;;;;;5.95;84.73;94651.28;787999;73;33035;-82
2022/01/01 05:16:27;;;;;;;55.12;35.33;;;;;;;5.80;85.24;94670.97;834466;71;31776;-88
2022/01/01 05:32:03;;;;;;;53.63;33.40;;;;;;;6.00;84.79;94694.25;833666;71;32441;-86
2022/01/01 06:01:38;;;;;;;42.43;23.80;;;;;;;6.07;84.20;94699.26;834346;71;32209;-86
2022/01/01 06:16:37;;;;;;;;;;;;;;;;;;;;;
2022/01/01 06:31:55;;;;;;;42.83;26.02;;;;;;;6.05;84.37;94683.09;834036;71;31808;-85
2022/01/01 06:47:05;;;;;;;44.03;27.07;;;;;;;6.32;85.03;94711.06;815356;72;32015;-86
2022/01/01 07:01:12;;;;;;;34.10;24.20;;;;;;;6.92;83.88;94714.11;828006;71;29939;-78
2022/01/01 07:16:10;;;;;;;41.70;26.62;;;;;;;7.59;81.24;94727.19;828058;71;28674;-81
2022/01/01 07:31:22;;;;;;;38.02;26.23;;;;;;;8.42;79.87;94732.52;809850;71;28738;-78
2022/01/01 07:46:26;;;;;;;37.75;27.62;;;;;;;;;;801024;74;32608;-77
2022/01/01 08:01:24;;;;;;;26.42;20.17;;;;;;;12.88;68.86;94736.27;824727;71;32415;-80
2022/01/01 08:16:15;;;;;;;9.13;7.08;;;;;;;14.65;64.29;94731.25;822731;70;28408;-77
2022/01/01 08:31:17;;;;;;;3.30;3.00;;;;;;;15.59;60.54;94737.70;834016;71;30914;-80
2022/01/01 08:46:11;;;;;;;4.10;3.75;;;;;;;15.85;58.89;94750.67;820097;71;28654;-77
2022/01/01 09:01:24;;;;;;;3.50;3.15;;;;;;;16.70;54.64;94753.89;820021;71;30322;-79
2022/01/01 09:16:29;;;;;;;3.40;3.10;;;;;;;16.87;53.40;94775.57;819316;71;29795;-80
2022/01/01 09:31:19;;;;;;;3.70;3.40;;;;;;;18.79;49.63;94782.09;820921;71;30022;-78
2022/01/01 09:46:17;;;;;;;3.80;3.50;;;;;;;20.04;45.87;94791.39;827738;71;30431;-81
2022/01/01 10:01:21;;;;;;;3.37;3.17;;;;;;;19.04;45.30;94794.61;821357;71;33085;-77
2022/01/01 10:16:13;;;;;;;4.25;3.83;;;;;;;17.34;49.69;94805.41;824197;71;30089;-80
2022/01/01 10:31:16;;;;;;;4.55;4.08;;;;;;;17.04;50.70;94799.34;822775;71;33188;-78
2022/01/01 10:46:29;;;;;;;6.15;5.40;;;;;;;16.71;51.56;94775.33;820919;71;32739;-78
2022/01/01 11:01:23;;;;;;;5.25;4.55;;;;;;;17.52;49.15;94760.95;833827;71;31417;-81
2022/01/01 11:16:24;;;;;;;4.65;4.25;;;;;;;16.85;48.54;94760.02;822732;71;32836;-80
2022/01/01 11:31:18;;;;;;;5.03;4.62;;;;;;;16.62;48.26;94742.23;822133;71;29758;-84
2022/01/01 11:46:21;;;;;;;4.83;4.15;;;;;;;15.22;50.69;94772.14;821481;71;29552;-81
2022/01/01 12:01:12;;;;;;;6.12;5.53;;;;;;;14.13;58.42;94781.94;819236;71;30220;-80
2022/01/01 12:16:22;;;;;;;7.35;6.65;;;;;;;13.26;61.94;94773.39;827405;71;33189;-76
2022/01/01 12:31:23;;;;;;;9.35;7.95;;;;;;;12.55;64.98;94782.48;827957;71;29710;-77
2022/01/01 12:46:31;;;;;;;11.35;8.75;;;;;;;11.94;67.71;94793.55;814602;71;33566;-77
2022/01/01 13:01:24;;;;;;;11.28;9.60;;;;;;;11.67;69.28;94791.56;824821;70;32453;-76
2022/01/01 13:16:16;;;;;;;11.95;9.90;;;;;;;11.52;71.22;94787.87;824647;71;30276;-77
2022/01/01 13:31:14;;;;;;;12.05;8.70;;;;;;;11.49;71.74;94789.74;817911;71;29796;-78
2022/01/01 13:46:29;;;;;;;10.13;9.10;;;;;;;11.39;72.10;94807.74;820688;71;33381;-77
2022/01/01 14:01:33;;;;;;;9.88;8.48;;;;;;;11.28;72.23;94817.62;821651;71;32824;-80
2022/01/01 14:16:30;;;;;;;10.95;9.13;;;;;;;11.19;72.49;94827.98;827994;71;30851;-77
2022/01/01 14:31:21;;;;;;;9.95;8.93;;;;;;;11.13;72.49;94836.19;833946;71;29728;-79
2022/01/01 14:46:21;;;;;;;9.68;8.55;;;;;;;11.06;72.60;94844.42;828041;71;30755;-77
2022/01/01 15:01:49;;;;;;;11.60;9.00;;;;;;;10.98;72.86;94866.05;780640;75;32990;-85
2022/01/01 16:17:02;;;;;;;;;;;;;;;;;;;;;
